sensor_id;sensor_type;location;lat;lon;timestamp;P1;durP1;ratioP1;P2;durP2;ratioP2
17886;SDS011;9069;52.044;7.472;2023-10-09T00:01:44;7.57;;;3.40;;
17886;SDS011;9069;52.044;7.472;2023-10-09T00:04:13;9.55;;;2.90;;
17886;SDS011;9069;52.044;7.472;2023-10-09T00:06:43;7.53;;;3.60;;
17886;SDS011;9069;52.044;7.472;2023-10-09T00:09:10;4.20;;;3.25;;
17886;SDS011;9069;52.044;7.472;2023-10-09T00:11:43;8.20;;;3.67;;
17886;SDS011;9069;52.044;7.472;2023-10-09T00:14:11;6.97;;;3.90;;
17886;SDS011;9069;52.044;7.472;2023-10-09T00:16:38;7.18;;;4.70;;
17886;SDS011;9069;52.044;7.472;2023-10-09T00:19:13;9.55;;;4.97;;
17886;SDS011;9069;52.044;7.472;2023-10-09T00:21:46;11.45;;;6.03;;
17886;SDS011;9069;52.044;7.472;2023-10-09T00:24:14;7.32;;;5.35;;
17886;SDS011;9069;52.044;7.472;2023-10-09T00:26:51;12.40;;;5.63;;
17886;SDS011;9069;52.044;7.472;2023-10-09T00:29:22;13.80;;;6.63;;
17886;SDS011;9069;52.044;7.472;2023-10-09T00:31:49;15.05;;;6.05;;
17886;SDS011;9069;52.044;7.472;2023-10-09T00:34:17;12.50;;;5.85;;
17886;SDS011;9069;52.044;7.472;2023-10-09T00:36:48;12.07;;;6.55;;
17886;SDS011;9069;52.044;7.472;2023-10-09T00:39:18;18.83;;;6.63;;
17886;SDS011;9069;52.044;7.472;2023-10-09T00:42:04;17.27;;;7.22;;
17886;SDS011;9069;52.044;7.472;2023-10-09T00:44:33;13.25;;;7.60;;
17886;SDS011;9069;52.044;7.472;2023-10-09T00:47:11;15.95;;;7.88;;
17886;SDS011;9069;52.044;7.472;2023-10-09T00:50:00;14.13;;;7.60;;
17886;SDS011;9069;52.044;7.472;2023-10-09T00:52:51;18.83;;;7.82;;
17886;SDS011;9069;52.044;7.472;2023-10-09T00:55:27;18.15;;;8.00;;
17886;SDS011;9069;52.044;7.472;2023-10-09T00:58:14;19.17;;;8.13;;
17886;SDS011;9069;52.044;7.472;2023-10-09T01:00:50;16.98;;;6.88;;
17886;SDS011;9069;52.044;7.472;2023-10-09T01:03:19;17.88;;;7.75;;
17886;SDS011;9069;52.044;7.472;2023-10-09T01:05:53;19.95;;;8.02;;
17886;SDS011;9069;52.044;7.472;2023-10-09T01:08:25;13.43;;;7.28;;
17886;SDS011;9069;52.044;7.472;2023-10-09T01:13:46;17.80;;;7.75;;
17886;SDS011;9069;52.044;7.472;2023-10-09T01:16:14;15.30;;;7.45;;
17886;SDS011;9069;52.044;7.472;2023-10-09T01:18:43;13.95;;;7.35;;
17886;SDS011;9069;52.044;7.472;2023-10-09T01:21:11;18.17;;;7.93;;
17886;SDS011;9069;52.044;7.472;2023-10-09T01:23:41;16.33;;;7.60;;
17886;SDS011;9069;52.044;7.472;2023-10-09T01:26:35;14.68;;;7.85;;
17886;SDS011;9069;52.044;7.472;2023-10-09T01:29:11;19.95;;;7.43;;
17886;SDS011;9069;52.044;7.472;2023-10-09T01:31:44;14.80;;;7.47;;
17886;SDS011;9069;52.044;7.472;2023-10-09T01:34:31;15.30;;;7.32;;
17886;SDS011;9069;52.044;7.472;2023-10-09T01:37:08;13.57;;;7.50;;
17886;SDS011;9069;52.044;7.472;2023-10-09T01:39:46;13.60;;;7.07;;
17886;SDS011;9069;52.044;7.472;2023-10-09T01:42:18;16.15;;;8.25;;
17886;SDS011;9069;52.044;7.472;2023-10-09T01:45:01;16.48;;;7.45;;
17886;SDS011;9069;52.044;7.472;2023-10-09T01:47:53;15.38;;;6.72;;
17886;SDS011;9069;52.044;7.472;2023-10-09T01:50:21;13.82;;;7.38;;
17886;SDS011;9069;52.044;7.472;2023-10-09T01:52:54;15.10;;;7.70;;
17886;SDS011;9069;52.044;7.472;2023-10-09T01:55:20;15.50;;;8.18;;
17886;SDS011;9069;52.044;7.472;2023-10-09T01:57:59;16.65;;;8.70;;
17886;SDS011;9069;52.044;7.472;2023-10-09T02:00:32;16.50;;;8.05;;
17886;SDS011;9069;52.044;7.472;2023-10-09T02:03:02;16.42;;;8.27;;
17886;SDS011;9069;52.044;7.472;2023-10-09T02:05:32;15.73;;;8.35;;
17886;SDS011;9069;52.044;7.472;2023-10-09T02:08:02;16.33;;;8.43;;
17886;SDS011;9069;52.044;7.472;2023-10-09T02:10:30;13.52;;;8.00;;
17886;SDS011;9069;52.044;7.472;2023-10-09T02:12:57;16.10;;;7.70;;
17886;SDS011;9069;52.044;7.472;2023-10-09T02:15:37;14.50;;;7.45;;
17886;SDS011;9069;52.044;7.472;2023-10-09T02:18:18;12.60;;;7.30;;
17886;SDS011;9069;52.044;7.472;2023-10-09T02:20:50;16.98;;;7.63;;
17886;SDS011;9069;52.044;7.472;2023-10-09T02:23:29;16.65;;;8.10;;
17886;SDS011;9069;52.044;7.472;2023-10-09T02:26:07;16.70;;;7.15;;
17886;SDS011;9069;52.044;7.472;2023-10-09T02:28:46;13.70;;;7.95;;
17886;SDS011;9069;52.044;7.472;2023-10-09T02:31:19;16.17;;;8.40;;
17886;SDS011;9069;52.044;7.472;2023-10-09T02:33:48;14.18;;;7.60;;
17886;SDS011;9069;52.044;7.472;2023-10-09T02:36:23;16.38;;;7.72;;
17886;SDS011;9069;52.044;7.472;2023-10-09T02:38:50;18.23;;;8.82;;
17886;SDS011;9069;52.044;7.472;2023-10-09T02:41:19;17.25;;;8.90;;
17886;SDS011;9069;52.044;7.472;2023-10-09T02:43:47;14.15;;;8.30;;
17886;SDS011;9069;52.044;7.472;2023-10-09T02:46:14;14.25;;;8.35;;
17886;SDS011;9069;52.044;7.472;2023-10-09T02:48:46;14.25;;;8.23;;
17886;SDS011;9069;52.044;7.472;2023-10-09T02:51:19;15.27;;;8.20;;
17886;SDS011;9069;52.044;7.472;2023-10-09T02:53:54;14.25;;;8.27;;
17886;SDS011;9069;52.044;7.472;2023-10-09T02:56:26;19.50;;;8.68;;
17886;SDS011;9069;52.044;7.472;2023-10-09T02:59:04;18.38;;;9.05;;
17886;SDS011;9069;52.044;7.472;2023-10-09T03:01:34;13.90;;;8.23;;
17886;SDS011;9069;52.044;7.472;2023-10-09T03:04:07;22.10;;;8.57;;
17886;SDS011;9069;52.044;7.472;2023-10-09T03:06:37;15.07;;;8.32;;
17886;SDS011;9069;52.044;7.472;2023-10-09T03:09:16;13.05;;;7.53;;
17886;SDS011;9069;52.044;7.472;2023-10-09T03:11:48;17.58;;;8.32;;
17886;SDS011;9069;52.044;7.472;2023-10-09T03:14:37;16.55;;;8.75;;
17886;SDS011;9069;52.044;7.472;2023-10-09T03:17:05;17.77;;;8.13;;
17886;SDS011;9069;52.044;7.472;2023-10-09T03:19:33;15.02;;;8.23;;
17886;SDS011;9069;52.044;7.472;2023-10-09T03:22:06;14.68;;;8.70;;
17886;SDS011;9069;52.044;7.472;2023-10-09T03:24:37;17.63;;;9.85;;
17886;SDS011;9069;52.044;7.472;2023-10-09T03:27:05;21.50;;;9.05;;
17886;SDS011;9069;52.044;7.472;2023-10-09T03:29:32;17.58;;;8.75;;
17886;SDS011;9069;52.044;7.472;2023-10-09T03:31:59;17.55;;;8.50;;
17886;SDS011;9069;52.044;7.472;2023-10-09T03:34:33;18.00;;;8.93;;
17886;SDS011;9069;52.044;7.472;2023-10-09T03:36:59;24.20;;;9.93;;
17886;SDS011;9069;52.044;7.472;2023-10-09T03:39:31;20.15;;;10.00;;
17886;SDS011;9069;52.044;7.472;2023-10-09T03:42:13;16.23;;;8.82;;
17886;SDS011;9069;52.044;7.472;2023-10-09T03:44:46;17.45;;;8.93;;
17886;SDS011;9069;52.044;7.472;2023-10-09T03:47:20;15.70;;;8.48;;
17886;SDS011;9069;52.044;7.472;2023-10-09T03:49:49;15.23;;;8.32;;
17886;SDS011;9069;52.044;7.472;2023-10-09T03:52:20;14.63;;;9.35;;
17886;SDS011;9069;52.044;7.472;2023-10-09T03:54:52;18.58;;;9.13;;
17886;SDS011;9069;52.044;7.472;2023-10-09T03:57:19;16.60;;;9.23;;
17886;SDS011;9069;52.044;7.472;2023-10-09T03:59:46;18.48;;;9.75;;
17886;SDS011;9069;52.044;7.472;2023-10-09T04:02:13;17.08;;;9.38;;
17886;SDS011;9069;52.044;7.472;2023-10-09T04:04:43;19.67;;;9.70;;
17886;SDS011;9069;52.044;7.472;2023-10-09T04:07:14;20.50;;;10.20;;
17886;SDS011;9069;52.044;7.472;2023-10-09T04:09:45;16.52;;;9.48;;
17886;SDS011;9069;52.044;7.472;2023-10-09T04:12:17;16.20;;;9.73;;
17886;SDS011;9069;52.044;7.472;2023-10-09T04:14:47;23.20;;;10.75;;
17886;SDS011;9069;52.044;7.472;2023-10-09T04:17:16;19.15;;;9.90;;
17886;SDS011;9069;52.044;7.472;2023-10-09T04:19:49;21.25;;;9.65;;
17886;SDS011;9069;52.044;7.472;2023-10-09T04:22:36;17.98;;;9.00;;
17886;SDS011;9069;52.044;7.472;2023-10-09T04:27:54;20.05;;;9.48;;
17886;SDS011;9069;52.044;7.472;2023-10-09T04:30:38;19.95;;;10.48;;
17886;SDS011;9069;52.044;7.472;2023-10-09T04:33:10;19.88;;;9.32;;
17886;SDS011;9069;52.044;7.472;2023-10-09T04:35:39;17.88;;;10.38;;
17886;SDS011;9069;52.044;7.472;2023-10-09T04:38:11;18.52;;;9.75;;
17886;SDS011;9069;52.044;7.472;2023-10-09T04:40:38;16.13;;;9.15;;
17886;SDS011;9069;52.044;7.472;2023-10-09T04:43:18;20.25;;;9.70;;
17886;SDS011;9069;52.044;7.472;2023-10-09T04:45:47;13.75;;;8.38;;
17886;SDS011;9069;52.044;7.472;2023-10-09T04:48:32;15.98;;;9.00;;
17886;SDS011;9069;52.044;7.472;2023-10-09T04:50:59;18.05;;;10.77;;
17886;SDS011;9069;52.044;7.472;2023-10-09T04:53:58;16.95;;;9.70;;
17886;SDS011;9069;52.044;7.472;2023-10-09T04:56:40;20.33;;;10.00;;
17886;SDS011;9069;52.044;7.472;2023-10-09T04:59:19;18.58;;;9.10;;
17886;SDS011;9069;52.044;7.472;2023-10-09T05:01:51;18.45;;;9.13;;
17886;SDS011;9069;52.044;7.472;2023-10-09T05:04:27;20.73;;;11.80;;
17886;SDS011;9069;52.044;7.472;2023-10-09T05:07:07;19.77;;;9.85;;
17886;SDS011;9069;52.044;7.472;2023-10-09T05:09:49;17.70;;;9.43;;
17886;SDS011;9069;52.044;7.472;2023-10-09T05:12:23;20.58;;;10.05;;
17886;SDS011;9069;52.044;7.472;2023-10-09T05:14:55;18.80;;;8.90;;
17886;SDS011;9069;52.044;7.472;2023-10-09T05:17:35;17.73;;;9.60;;
17886;SDS011;9069;52.044;7.472;2023-10-09T05:20:07;23.73;;;10.55;;
17886;SDS011;9069;52.044;7.472;2023-10-09T05:22:49;17.00;;;10.55;;
17886;SDS011;9069;52.044;7.472;2023-10-09T05:25:40;18.38;;;10.55;;
17886;SDS011;9069;52.044;7.472;2023-10-09T05:28:25;20.77;;;10.82;;
17886;SDS011;9069;52.044;7.472;2023-10-09T05:30:57;18.55;;;9.25;;
17886;SDS011;9069;52.044;7.472;2023-10-09T05:33:43;20.17;;;9.52;;
17886;SDS011;9069;52.044;7.472;2023-10-09T05:36:11;15.90;;;9.90;;
17886;SDS011;9069;52.044;7.472;2023-10-09T05:38:47;18.10;;;9.18;;
17886;SDS011;9069;52.044;7.472;2023-10-09T05:41:25;17.30;;;10.32;;
17886;SDS011;9069;52.044;7.472;2023-10-09T05:44:13;19.15;;;10.27;;
17886;SDS011;9069;52.044;7.472;2023-10-09T05:47:15;19.90;;;9.45;;
17886;SDS011;9069;52.044;7.472;2023-10-09T05:50:00;18.45;;;10.65;;
17886;SDS011;9069;52.044;7.472;2023-10-09T05:52:39;19.30;;;10.68;;
17886;SDS011;9069;52.044;7.472;2023-10-09T05:55:06;18.27;;;11.13;;
17886;SDS011;9069;52.044;7.472;2023-10-09T05:57:45;17.25;;;10.63;;
17886;SDS011;9069;52.044;7.472;2023-10-09T06:00:31;17.60;;;10.30;;
17886;SDS011;9069;52.044;7.472;2023-10-09T06:03:16;22.52;;;11.43;;
17886;SDS011;9069;52.044;7.472;2023-10-09T06:05:52;15.60;;;10.07;;
17886;SDS011;9069;52.044;7.472;2023-10-09T06:08:23;19.50;;;10.48;;
17886;SDS011;9069;52.044;7.472;2023-10-09T06:11:05;17.52;;;10.80;;
17886;SDS011;9069;52.044;7.472;2023-10-09T06:13:52;20.98;;;10.38;;
17886;SDS011;9069;52.044;7.472;2023-10-09T06:16:35;16.27;;;9.55;;
17886;SDS011;9069;52.044;7.472;2023-10-09T06:19:05;22.30;;;11.05;;
17886;SDS011;9069;52.044;7.472;2023-10-09T06:21:40;14.45;;;9.25;;
17886;SDS011;9069;52.044;7.472;2023-10-09T06:24:27;16.20;;;9.23;;
17886;SDS011;9069;52.044;7.472;2023-10-09T06:27:08;18.50;;;10.90;;
17886;SDS011;9069;52.044;7.472;2023-10-09T06:29:36;19.52;;;10.35;;
17886;SDS011;9069;52.044;7.472;2023-10-09T06:32:06;19.88;;;10.88;;
17886;SDS011;9069;52.044;7.472;2023-10-09T06:35:01;17.80;;;9.90;;
17886;SDS011;9069;52.044;7.472;2023-10-09T06:37:48;18.33;;;10.57;;
17886;SDS011;9069;52.044;7.472;2023-10-09T06:40:39;16.48;;;10.15;;
17886;SDS011;9069;52.044;7.472;2023-10-09T06:43:18;19.35;;;10.15;;
17886;SDS011;9069;52.044;7.472;2023-10-09T06:45:49;16.17;;;9.80;;
17886;SDS011;9069;52.044;7.472;2023-10-09T06:48:25;16.65;;;10.35;;
17886;SDS011;9069;52.044;7.472;2023-10-09T06:51:02;17.30;;;9.68;;
17886;SDS011;9069;52.044;7.472;2023-10-09T06:53:48;18.67;;;10.55;;
17886;SDS011;9069;52.044;7.472;2023-10-09T06:58:57;17.58;;;10.63;;
17886;SDS011;9069;52.044;7.472;2023-10-09T07:01:50;21.08;;;10.20;;
17886;SDS011;9069;52.044;7.472;2023-10-09T07:04:36;20.30;;;10.68;;
17886;SDS011;9069;52.044;7.472;2023-10-09T07:07:04;18.40;;;10.50;;
17886;SDS011;9069;52.044;7.472;2023-10-09T07:09:36;16.63;;;9.85;;
17886;SDS011;9069;52.044;7.472;2023-10-09T07:12:09;20.27;;;10.77;;
17886;SDS011;9069;52.044;7.472;2023-10-09T07:14:40;16.95;;;10.20;;
17886;SDS011;9069;52.044;7.472;2023-10-09T07:17:07;21.17;;;10.88;;
17886;SDS011;9069;52.044;7.472;2023-10-09T07:19:54;15.02;;;10.02;;
17886;SDS011;9069;52.044;7.472;2023-10-09T07:22:21;18.20;;;10.10;;
17886;SDS011;9069;52.044;7.472;2023-10-09T07:24:49;20.00;;;10.52;;
17886;SDS011;9069;52.044;7.472;2023-10-09T07:27:24;21.40;;;10.85;;
17886;SDS011;9069;52.044;7.472;2023-10-09T07:30:15;15.60;;;10.60;;
17886;SDS011;9069;52.044;7.472;2023-10-09T07:32:59;18.88;;;10.55;;
17886;SDS011;9069;52.044;7.472;2023-10-09T07:35:40;14.73;;;9.85;;
17886;SDS011;9069;52.044;7.472;2023-10-09T07:38:09;19.95;;;10.25;;
17886;SDS011;9069;52.044;7.472;2023-10-09T07:40:54;15.75;;;9.30;;
17886;SDS011;9069;52.044;7.472;2023-10-09T07:43:26;16.45;;;10.13;;
17886;SDS011;9069;52.044;7.472;2023-10-09T07:46:12;16.17;;;9.73;;
17886;SDS011;9069;52.044;7.472;2023-10-09T07:49:18;19.52;;;9.85;;
17886;SDS011;9069;52.044;7.472;2023-10-09T07:51:51;18.08;;;10.30;;
17886;SDS011;9069;52.044;7.472;2023-10-09T07:54:19;17.17;;;8.75;;
17886;SDS011;9069;52.044;7.472;2023-10-09T07:57:02;16.20;;;9.27;;
17886;SDS011;9069;52.044;7.472;2023-10-09T07:59:35;19.08;;;10.50;;
17886;SDS011;9069;52.044;7.472;2023-10-09T08:02:07;15.57;;;9.27;;
17886;SDS011;9069;52.044;7.472;2023-10-09T08:04:39;17.17;;;9.48;;
17886;SDS011;9069;52.044;7.472;2023-10-09T08:07:16;15.30;;;9.50;;
17886;SDS011;9069;52.044;7.472;2023-10-09T08:10:07;15.73;;;9.20;;
17886;SDS011;9069;52.044;7.472;2023-10-09T08:12:41;17.00;;;9.57;;
17886;SDS011;9069;52.044;7.472;2023-10-09T08:15:17;17.52;;;10.02;;
17886;SDS011;9069;52.044;7.472;2023-10-09T08:17:48;15.98;;;9.48;;
17886;SDS011;9069;52.044;7.472;2023-10-09T08:20:37;14.50;;;10.05;;
17886;SDS011;9069;52.044;7.472;2023-10-09T08:23:22;14.82;;;9.50;;
17886;SDS011;9069;52.044;7.472;2023-10-09T08:26:02;15.95;;;9.80;;
17886;SDS011;9069;52.044;7.472;2023-10-09T08:28:43;16.83;;;9.77;;
17886;SDS011;9069;52.044;7.472;2023-10-09T08:31:11;19.08;;;9.02;;
17886;SDS011;9069;52.044;7.472;2023-10-09T08:34:02;16.65;;;9.48;;
17886;SDS011;9069;52.044;7.472;2023-10-09T08:36:33;14.98;;;9.70;;
17886;SDS011;9069;52.044;7.472;2023-10-09T08:39:04;15.63;;;8.98;;
17886;SDS011;9069;52.044;7.472;2023-10-09T08:41:43;16.25;;;9.85;;
17886;SDS011;9069;52.044;7.472;2023-10-09T08:44:11;15.52;;;8.60;;
17886;SDS011;9069;52.044;7.472;2023-10-09T08:46:41;14.75;;;9.70;;
17886;SDS011;9069;52.044;7.472;2023-10-09T08:49:09;15.07;;;9.63;;
17886;SDS011;9069;52.044;7.472;2023-10-09T08:51:37;20.38;;;9.60;;
17886;SDS011;9069;52.044;7.472;2023-10-09T08:54:04;14.63;;;9.52;;
17886;SDS011;9069;52.044;7.472;2023-10-09T08:56:38;14.48;;;8.48;;
17886;SDS011;9069;52.044;7.472;2023-10-09T08:59:16;21.40;;;9.05;;
17886;SDS011;9069;52.044;7.472;2023-10-09T09:01:46;16.35;;;9.07;;
17886;SDS011;9069;52.044;7.472;2023-10-09T09:07:27;11.60;;;8.02;;
17886;SDS011;9069;52.044;7.472;2023-10-09T09:10:02;13.85;;;8.40;;
17886;SDS011;9069;52.044;7.472;2023-10-09T09:12:47;16.02;;;9.02;;
17886;SDS011;9069;52.044;7.472;2023-10-09T09:15:27;17.80;;;8.60;;
17886;SDS011;9069;52.044;7.472;2023-10-09T09:18:04;12.50;;;8.50;;
17886;SDS011;9069;52.044;7.472;2023-10-09T09:20:32;15.13;;;8.95;;
17886;SDS011;9069;52.044;7.472;2023-10-09T09:23:12;15.93;;;8.43;;
17886;SDS011;9069;52.044;7.472;2023-10-09T09:25:43;18.63;;;9.63;;
17886;SDS011;9069;52.044;7.472;2023-10-09T09:28:12;12.65;;;8.82;;
17886;SDS011;9069;52.044;7.472;2023-10-09T09:30:39;14.45;;;9.18;;
17886;SDS011;9069;52.044;7.472;2023-10-09T09:33:16;16.98;;;8.95;;
17886;SDS011;9069;52.044;7.472;2023-10-09T09:35:57;13.27;;;8.50;;
17886;SDS011;9069;52.044;7.472;2023-10-09T09:38:31;17.58;;;9.05;;
17886;SDS011;9069;52.044;7.472;2023-10-09T09:41:08;14.95;;;9.23;;
17886;SDS011;9069;52.044;7.472;2023-10-09T09:43:38;16.55;;;8.63;;
17886;SDS011;9069;52.044;7.472;2023-10-09T09:46:07;18.52;;;8.82;;
17886;SDS011;9069;52.044;7.472;2023-10-09T09:48:37;15.73;;;8.20;;
17886;SDS011;9069;52.044;7.472;2023-10-09T09:51:12;16.08;;;8.43;;
17886;SDS011;9069;52.044;7.472;2023-10-09T09:53:41;16.65;;;9.35;;
17886;SDS011;9069;52.044;7.472;2023-10-09T09:56:08;17.30;;;9.45;;
17886;SDS011;9069;52.044;7.472;2023-10-09T09:58:44;15.27;;;8.93;;
17886;SDS011;9069;52.044;7.472;2023-10-09T10:01:19;16.40;;;9.27;;
17886;SDS011;9069;52.044;7.472;2023-10-09T10:04:08;12.18;;;8.35;;
17886;SDS011;9069;52.044;7.472;2023-10-09T10:06:40;14.27;;;8.55;;
17886;SDS011;9069;52.044;7.472;2023-10-09T10:09:19;16.40;;;9.15;;
17886;SDS011;9069;52.044;7.472;2023-10-09T10:12:08;13.52;;;9.05;;
17886;SDS011;9069;52.044;7.472;2023-10-09T10:14:51;17.38;;;9.05;;
17886;SDS011;9069;52.044;7.472;2023-10-09T10:17:19;15.80;;;9.73;;
17886;SDS011;9069;52.044;7.472;2023-10-09T10:22:48;14.13;;;8.68;;
17886;SDS011;9069;52.044;7.472;2023-10-09T10:31:11;17.50;;;9.48;;
17886;SDS011;9069;52.044;7.472;2023-10-09T10:36:22;17.83;;;8.55;;
17886;SDS011;9069;52.044;7.472;2023-10-09T10:41:52;15.30;;;8.98;;
17886;SDS011;9069;52.044;7.472;2023-10-09T10:47:05;14.68;;;8.93;;
17886;SDS011;9069;52.044;7.472;2023-10-09T10:49:50;17.60;;;8.98;;
17886;SDS011;9069;52.044;7.472;2023-10-09T10:52:21;14.07;;;9.20;;
17886;SDS011;9069;52.044;7.472;2023-10-09T10:54:49;17.20;;;9.20;;
17886;SDS011;9069;52.044;7.472;2023-10-09T10:57:42;14.18;;;8.57;;
17886;SDS011;9069;52.044;7.472;2023-10-09T11:00:30;16.13;;;9.98;;
17886;SDS011;9069;52.044;7.472;2023-10-09T11:03:19;16.30;;;9.05;;
17886;SDS011;9069;52.044;7.472;2023-10-09T11:05:57;19.17;;;9.35;;
17886;SDS011;9069;52.044;7.472;2023-10-09T11:08:46;17.13;;;9.63;;
17886;SDS011;9069;52.044;7.472;2023-10-09T11:11:21;18.08;;;9.43;;
17886;SDS011;9069;52.044;7.472;2023-10-09T11:13:48;17.80;;;9.50;;
17886;SDS011;9069;52.044;7.472;2023-10-09T11:16:24;12.82;;;8.32;;
17886;SDS011;9069;52.044;7.472;2023-10-09T11:19:14;15.52;;;9.95;;
17886;SDS011;9069;52.044;7.472;2023-10-09T11:21:55;16.20;;;9.30;;
17886;SDS011;9069;52.044;7.472;2023-10-09T11:24:48;18.75;;;9.40;;
17886;SDS011;9069;52.044;7.472;2023-10-09T11:27:36;12.88;;;8.55;;
17886;SDS011;9069;52.044;7.472;2023-10-09T11:30:06;19.42;;;9.77;;
17886;SDS011;9069;52.044;7.472;2023-10-09T11:32:38;13.82;;;8.27;;
17886;SDS011;9069;52.044;7.472;2023-10-09T11:35:09;17.70;;;8.07;;
17886;SDS011;9069;52.044;7.472;2023-10-09T11:37:38;14.68;;;8.63;;
17886;SDS011;9069;52.044;7.472;2023-10-09T11:40:28;12.52;;;8.80;;
17886;SDS011;9069;52.044;7.472;2023-10-09T11:43:00;12.35;;;7.72;;
17886;SDS011;9069;52.044;7.472;2023-10-09T11:45:30;14.30;;;8.70;;
17886;SDS011;9069;52.044;7.472;2023-10-09T11:48:16;16.63;;;8.10;;
17886;SDS011;9069;52.044;7.472;2023-10-09T11:50:51;18.05;;;8.45;;
17886;SDS011;9069;52.044;7.472;2023-10-09T11:53:21;16.45;;;8.98;;
17886;SDS011;9069;52.044;7.472;2023-10-09T11:55:48;13.68;;;7.47;;
17886;SDS011;9069;52.044;7.472;2023-10-09T11:58:16;18.85;;;9.55;;
17886;SDS011;9069;52.044;7.472;2023-10-09T12:03:25;16.65;;;8.10;;
17886;SDS011;9069;52.044;7.472;2023-10-09T12:05:57;12.00;;;7.78;;
17886;SDS011;9069;52.044;7.472;2023-10-09T12:08:33;15.70;;;8.60;;
17886;SDS011;9069;52.044;7.472;2023-10-09T12:11:01;17.50;;;8.40;;
17886;SDS011;9069;52.044;7.472;2023-10-09T12:13:29;14.40;;;8.48;;
17886;SDS011;9069;52.044;7.472;2023-10-09T12:15:57;15.07;;;8.02;;
17886;SDS011;9069;52.044;7.472;2023-10-09T12:18:24;15.65;;;8.35;;
17886;SDS011;9069;52.044;7.472;2023-10-09T12:20:51;15.15;;;8.10;;
17886;SDS011;9069;52.044;7.472;2023-10-09T12:23:19;11.60;;;7.55;;
17886;SDS011;9069;52.044;7.472;2023-10-09T12:25:50;14.90;;;8.20;;
17886;SDS011;9069;52.044;7.472;2023-10-09T12:28:22;16.80;;;8.38;;
17886;SDS011;9069;52.044;7.472;2023-10-09T12:30:49;13.38;;;7.97;;
17886;SDS011;9069;52.044;7.472;2023-10-09T12:33:19;15.43;;;8.63;;
17886;SDS011;9069;52.044;7.472;2023-10-09T12:35:54;15.85;;;8.00;;
17886;SDS011;9069;52.044;7.472;2023-10-09T12:38:29;11.73;;;7.22;;
17886;SDS011;9069;52.044;7.472;2023-10-09T12:41:06;13.93;;;7.95;;
17886;SDS011;9069;52.044;7.472;2023-10-09T12:43:54;15.38;;;7.95;;
17886;SDS011;9069;52.044;7.472;2023-10-09T12:46:21;15.32;;;8.32;;
17886;SDS011;9069;52.044;7.472;2023-10-09T12:48:59;14.85;;;7.93;;
17886;SDS011;9069;52.044;7.472;2023-10-09T12:51:28;17.83;;;8.35;;
17886;SDS011;9069;52.044;7.472;2023-10-09T12:53:58;13.20;;;7.60;;
17886;SDS011;9069;52.044;7.472;2023-10-09T12:56:28;19.33;;;8.35;;
17886;SDS011;9069;52.044;7.472;2023-10-09T12:59:04;11.73;;;7.00;;
17886;SDS011;9069;52.044;7.472;2023-10-09T13:01:33;14.55;;;8.13;;
17886;SDS011;9069;52.044;7.472;2023-10-09T13:04:13;14.52;;;7.80;;
17886;SDS011;9069;52.044;7.472;2023-10-09T13:06:45;18.35;;;8.15;;
17886;SDS011;9069;52.044;7.472;2023-10-09T13:09:13;15.13;;;8.85;;
17886;SDS011;9069;52.044;7.472;2023-10-09T13:11:44;13.75;;;7.75;;
17886;SDS011;9069;52.044;7.472;2023-10-09T13:14:14;11.85;;;7.47;;
17886;SDS011;9069;52.044;7.472;2023-10-09T13:16:48;15.80;;;7.15;;
17886;SDS011;9069;52.044;7.472;2023-10-09T13:19:19;12.95;;;7.47;;
17886;SDS011;9069;52.044;7.472;2023-10-09T13:21:50;14.10;;;7.32;;
17886;SDS011;9069;52.044;7.472;2023-10-09T13:24:17;12.65;;;6.70;;
17886;SDS011;9069;52.044;7.472;2023-10-09T13:26:44;17.88;;;7.55;;
17886;SDS011;9069;52.044;7.472;2023-10-09T13:29:13;16.92;;;7.32;;
17886;SDS011;9069;52.044;7.472;2023-10-09T13:31:44;13.77;;;6.95;;
17886;SDS011;9069;52.044;7.472;2023-10-09T13:34:14;16.52;;;7.40;;
17886;SDS011;9069;52.044;7.472;2023-10-09T13:36:44;12.90;;;7.25;;
17886;SDS011;9069;52.044;7.472;2023-10-09T13:39:20;13.82;;;7.05;;
17886;SDS011;9069;52.044;7.472;2023-10-09T13:41:54;14.18;;;7.18;;
17886;SDS011;9069;52.044;7.472;2023-10-09T13:44:30;16.60;;;7.57;;
17886;SDS011;9069;52.044;7.472;2023-10-09T13:47:02;17.67;;;7.57;;
17886;SDS011;9069;52.044;7.472;2023-10-09T13:49:35;13.07;;;7.03;;
17886;SDS011;9069;52.044;7.472;2023-10-09T13:52:09;16.80;;;7.15;;
17886;SDS011;9069;52.044;7.472;2023-10-09T13:54:36;15.32;;;6.45;;
17886;SDS011;9069;52.044;7.472;2023-10-09T13:57:03;13.85;;;6.45;;
17886;SDS011;9069;52.044;7.472;2023-10-09T13:59:34;13.18;;;6.55;;
17886;SDS011;9069;52.044;7.472;2023-10-09T14:02:02;15.88;;;6.88;;
17886;SDS011;9069;52.044;7.472;2023-10-09T14:04:37;16.40;;;6.75;;
17886;SDS011;9069;52.044;7.472;2023-10-09T14:07:04;14.15;;;7.20;;
17886;SDS011;9069;52.044;7.472;2023-10-09T14:09:35;10.07;;;6.10;;
17886;SDS011;9069;52.044;7.472;2023-10-09T14:12:11;12.73;;;6.50;;
17886;SDS011;9069;52.044;7.472;2023-10-09T14:14:41;11.52;;;6.03;;
17886;SDS011;9069;52.044;7.472;2023-10-09T14:17:16;11.95;;;6.38;;
17886;SDS011;9069;52.044;7.472;2023-10-09T14:19:54;11.43;;;5.97;;
17886;SDS011;9069;52.044;7.472;2023-10-09T14:22:27;13.63;;;6.18;;
17886;SDS011;9069;52.044;7.472;2023-10-09T14:24:55;13.23;;;6.05;;
17886;SDS011;9069;52.044;7.472;2023-10-09T14:27:24;12.63;;;6.28;;
17886;SDS011;9069;52.044;7.472;2023-10-09T14:29:53;12.70;;;6.15;;
17886;SDS011;9069;52.044;7.472;2023-10-09T14:32:27;11.52;;;6.07;;
17886;SDS011;9069;52.044;7.472;2023-10-09T14:35:10;10.80;;;5.40;;
17886;SDS011;9069;52.044;7.472;2023-10-09T14:37:41;15.10;;;5.57;;
17886;SDS011;9069;52.044;7.472;2023-10-09T14:40:08;14.77;;;6.93;;
17886;SDS011;9069;52.044;7.472;2023-10-09T14:42:39;12.35;;;5.65;;
17886;SDS011;9069;52.044;7.472;2023-10-09T14:45:10;14.13;;;6.35;;
17886;SDS011;9069;52.044;7.472;2023-10-09T14:47:42;9.60;;;5.97;;
17886;SDS011;9069;52.044;7.472;2023-10-09T14:50:09;10.85;;;5.10;;
17886;SDS011;9069;52.044;7.472;2023-10-09T14:52:40;7.85;;;5.25;;
17886;SDS011;9069;52.044;7.472;2023-10-09T14:55:07;8.43;;;5.30;;
17886;SDS011;9069;52.044;7.472;2023-10-09T14:57:36;13.00;;;6.05;;
17886;SDS011;9069;52.044;7.472;2023-10-09T15:00:02;12.90;;;6.00;;
17886;SDS011;9069;52.044;7.472;2023-10-09T15:02:40;11.18;;;5.65;;
17886;SDS011;9069;52.044;7.472;2023-10-09T15:05:06;9.80;;;4.50;;
17886;SDS011;9069;52.044;7.472;2023-10-09T15:07:38;7.97;;;5.75;;
17886;SDS011;9069;52.044;7.472;2023-10-09T15:10:09;8.90;;;5.45;;
17886;SDS011;9069;52.044;7.472;2023-10-09T15:12:36;12.02;;;6.03;;
17886;SDS011;9069;52.044;7.472;2023-10-09T15:15:09;11.57;;;5.25;;
17886;SDS011;9069;52.044;7.472;2023-10-09T15:17:42;8.88;;;5.20;;
17886;SDS011;9069;52.044;7.472;2023-10-09T15:20:11;9.57;;;4.70;;
17886;SDS011;9069;52.044;7.472;2023-10-09T15:22:43;9.95;;;4.60;;
17886;SDS011;9069;52.044;7.472;2023-10-09T15:25:11;11.00;;;5.15;;
17886;SDS011;9069;52.044;7.472;2023-10-09T15:27:42;8.73;;;5.25;;
17886;SDS011;9069;52.044;7.472;2023-10-09T15:30:09;9.70;;;5.15;;
17886;SDS011;9069;52.044;7.472;2023-10-09T15:32:40;13.48;;;4.82;;
17886;SDS011;9069;52.044;7.472;2023-10-09T15:35:10;9.77;;;4.95;;
17886;SDS011;9069;52.044;7.472;2023-10-09T15:37:39;9.10;;;5.57;;
17886;SDS011;9069;52.044;7.472;2023-10-09T15:40:08;9.63;;;5.30;;
17886;SDS011;9069;52.044;7.472;2023-10-09T15:42:42;10.02;;;4.93;;
17886;SDS011;9069;52.044;7.472;2023-10-09T15:45:10;11.48;;;5.80;;
17886;SDS011;9069;52.044;7.472;2023-10-09T15:47:38;10.77;;;5.78;;
17886;SDS011;9069;52.044;7.472;2023-10-09T15:50:06;8.05;;;5.10;;
17886;SDS011;9069;52.044;7.472;2023-10-09T15:52:38;10.30;;;5.25;;
17886;SDS011;9069;52.044;7.472;2023-10-09T15:55:06;8.27;;;4.70;;
17886;SDS011;9069;52.044;7.472;2023-10-09T15:57:40;7.00;;;4.90;;
17886;SDS011;9069;52.044;7.472;2023-10-09T16:00:08;10.85;;;4.88;;